createdAt,value
2023-11-23T07:47:08.628Z,100039.00
2023-11-23T07:47:19.877Z,100035.00
2023-11-23T07:47:31.462Z,100033.00
2023-11-23T07:47:43.041Z,100037.00
2023-11-23T07:47:54.844Z,100033.00
2023-11-23T07:48:06.221Z,100033.00
2023-11-23T07:48:17.844Z,100023.00
2023-11-23T07:48:29.184Z,100021.00
2023-11-23T07:48:40.757Z,100025.00
2023-11-23T07:48:52.167Z,100019.00
2023-11-23T07:49:03.803Z,100023.00
2023-11-23T07:49:15.163Z,100033.00
2023-11-23T07:49:26.706Z,100021.00
2023-11-23T07:49:37.983Z,100017.00
2023-11-23T07:49:49.536Z,100017.00
2023-11-23T07:50:00.821Z,100017.00
2023-11-23T07:50:12.410Z,100025.00
2023-11-23T07:50:23.703Z,100035.00
2023-11-23T07:50:35.220Z,100033.00
2023-11-23T07:50:46.494Z,100035.00
2023-11-23T07:50:58.183Z,100025.00
2023-11-23T07:51:09.463Z,100021.00
2023-11-23T07:51:21.021Z,100017.00
2023-11-23T07:51:32.984Z,100017.00
2023-11-23T07:51:44.507Z,100023.00
2023-11-23T07:51:55.749Z,100025.00
2023-11-23T07:52:07.279Z,100033.00
2023-11-23T07:52:18.551Z,100017.00
2023-11-23T07:52:30.054Z,100015.00
2023-11-23T07:52:41.315Z,100011.00
2023-11-23T07:52:52.854Z,100013.00
2023-11-23T07:53:04.231Z,100017.00
2023-11-23T07:53:15.781Z,100013.00
2023-11-23T07:53:27.069Z,100021.00
2023-11-23T07:53:38.605Z,100013.00
2023-11-23T07:53:49.888Z,100009.00
2023-11-23T07:54:01.393Z,100007.00
2023-11-23T07:54:12.782Z,100009.00
2023-11-23T07:54:24.379Z,100017.00
2023-11-23T07:54:35.705Z,100017.00
2023-11-23T07:54:47.240Z,100011.00
2023-11-23T07:54:58.493Z,100005.00
2023-11-23T07:55:10.052Z,100009.00
2023-11-23T07:55:21.324Z,100009.00
2023-11-23T07:55:32.912Z,100015.00
2023-11-23T07:55:44.161Z,100013.00
2023-11-23T07:55:55.694Z,100019.00
2023-11-23T07:56:06.963Z,100015.00
2023-11-23T07:56:18.495Z,100009.00
2023-11-23T07:56:29.755Z,100009.00
2023-11-23T07:56:41.304Z,100009.00
2023-11-23T07:56:52.611Z,100011.00
2023-11-23T07:57:04.198Z,100015.00
2023-11-23T07:57:15.460Z,100011.00
2023-11-23T07:57:27.063Z,100009.00
2023-11-23T07:57:38.416Z,100009.00
2023-11-23T07:57:50.134Z,100007.00
2023-11-23T07:58:01.523Z,100013.00
2023-11-23T07:58:13.107Z,100005.00
2023-11-23T07:58:24.391Z,100002.00
2023-11-23T07:58:35.893Z,100009.00
2023-11-23T07:58:47.173Z,100015.00
2023-11-23T07:58:58.744Z,100011.00
2023-11-23T07:59:10.028Z,100015.00
2023-11-23T07:59:21.567Z,100007.00
2023-11-23T07:59:32.871Z,100011.00
2023-11-23T07:59:44.425Z,100009.00
2023-11-23T07:59:55.732Z,100013.00
2023-11-23T08:00:07.281Z,100011.00
2023-11-23T08:00:18.599Z,100011.00
2023-11-23T08:00:30.330Z,100009.00
2023-11-23T08:00:42.494Z,100009.00
2023-11-23T08:00:51.766Z,100013.00
2023-11-23T08:01:03.356Z,100013.00
2023-11-23T08:01:15.490Z,100011.00
2023-11-23T08:01:27.002Z,100015.00
2023-11-23T08:01:38.294Z,100021.00
2023-11-23T08:01:49.852Z,100011.00
2023-11-23T08:02:01.189Z,100011.00
2023-11-23T08:02:12.833Z,100011.00
2023-11-23T08:02:24.073Z,100009.00
2023-11-23T08:02:35.605Z,100009.00
2023-11-23T08:02:46.878Z,100013.00
2023-11-23T08:02:58.506Z,100015.00
2023-11-23T08:03:10.012Z,100015.00
2023-11-23T08:03:21.598Z,100017.00
2023-11-23T08:03:32.967Z,100015.00
2023-11-23T08:03:44.661Z,100015.00
2023-11-23T08:03:56.229Z,100015.00
2023-11-23T08:04:07.962Z,100015.00
2023-11-23T08:04:19.544Z,100009.00
2023-11-23T08:04:31.275Z,100005.00
2023-11-23T08:04:43.262Z,100007.00
2023-11-23T08:04:54.671Z,100011.00
2023-11-23T08:05:06.462Z,100003.00
2023-11-23T08:05:17.914Z,100009.00
2023-11-23T08:05:29.420Z,100009.00
2023-11-23T08:05:40.676Z,100007.00
2023-11-23T08:05:52.222Z,100007.00
2023-11-23T08:06:03.562Z,100003.00
2023-11-23T08:06:15.114Z,99998.00
2023-11-23T08:06:26.379Z,100002.00
2023-11-23T08:06:37.890Z,100007.00
2023-11-23T08:06:49.228Z,100005.00
2023-11-23T08:07:00.756Z,100005.00
2023-11-23T08:07:12.053Z,100009.00
2023-11-23T08:07:23.627Z,100005.00
2023-11-23T08:07:34.931Z,100003.00
2023-11-23T08:07:46.458Z,99998.00
2023-11-23T08:07:57.754Z,100003.00
2023-11-23T08:08:09.262Z,100002.00
2023-11-23T08:08:20.600Z,100002.00
2023-11-23T08:08:32.116Z,100003.00
2023-11-23T08:08:43.372Z,100009.00
2023-11-23T08:08:54.916Z,100002.00
2023-11-23T08:09:06.233Z,100002.00
2023-11-23T08:09:17.763Z,99996.00
2023-11-23T08:09:29.727Z,100000.00
2023-11-23T08:09:40.979Z,99996.00
2023-11-23T08:09:52.494Z,100000.00
2023-11-23T08:10:03.762Z,100002.00
2023-11-23T08:10:15.318Z,99998.00
2023-11-23T08:10:26.648Z,99996.00
2023-11-23T08:10:38.153Z,100007.00
2023-11-23T08:10:49.426Z,100013.00
2023-11-23T08:11:01.000Z,100007.00
2023-11-23T08:11:12.977Z,100000.00
2023-11-23T08:11:24.511Z,99992.00
2023-11-23T08:11:35.777Z,99996.00
2023-11-23T08:11:47.350Z,99996.00
2023-11-23T08:11:58.752Z,99996.00
2023-11-23T08:12:10.358Z,99994.00
2023-11-23T08:12:21.642Z,99992.00
2023-11-23T08:12:33.274Z,99996.00
2023-11-23T08:12:44.528Z,99994.00
2023-11-23T08:12:56.052Z,100002.00
2023-11-23T08:13:07.346Z,100007.00
2023-11-23T08:13:18.881Z,100007.00
2023-11-23T08:13:30.145Z,100000.00
2023-11-23T08:13:41.668Z,99996.00
2023-11-23T08:13:52.998Z,99998.00
2023-11-23T08:14:04.587Z,99998.00
2023-11-23T08:14:16.086Z,99998.00
2023-11-23T08:14:27.586Z,99992.00
2023-11-23T08:14:38.890Z,99992.00
2023-11-23T08:14:50.584Z,99996.00
2023-11-23T08:15:01.874Z,99992.00
2023-11-23T08:15:13.426Z,99996.00
2023-11-23T08:15:24.728Z,100003.00
2023-11-23T08:15:36.341Z,100005.00
2023-11-23T08:15:47.641Z,100003.00
2023-11-23T08:15:59.178Z,100000.00
2023-11-23T08:16:10.457Z,100002.00
2023-11-23T08:16:22.100Z,100000.00
2023-11-23T08:16:33.396Z,99998.00
2023-11-23T08:16:44.954Z,100005.00
2023-11-23T08:16:56.293Z,100009.00
2023-11-23T08:17:07.923Z,100007.00
2023-11-23T08:17:19.226Z,100002.00
2023-11-23T08:17:30.768Z,100007.00
2023-11-23T08:17:51.044Z,100009.00
2023-11-23T08:18:01.490Z,100007.00
2023-11-23T08:18:08.400Z,100009.00
2023-11-23T08:18:18.013Z,100007.00
2023-11-23T08:18:36.861Z,100011.00
2023-11-23T08:18:49.386Z,100009.00
2023-11-23T08:18:53.504Z,100015.00
2023-11-23T08:19:04.855Z,100017.00
2023-11-23T08:19:16.627Z,100011.00
2023-11-23T08:19:27.954Z,100011.00
2023-11-23T08:19:39.545Z,100009.00
2023-11-23T08:19:50.853Z,100007.00
2023-11-23T08:20:02.443Z,100009.00
2023-11-23T08:20:13.713Z,100011.00
2023-11-23T08:20:25.235Z,100019.00
2023-11-23T08:20:36.489Z,100021.00
2023-11-23T08:20:48.036Z,100019.00
2023-11-23T08:20:59.412Z,100021.00
2023-11-23T08:21:10.975Z,100025.00
2023-11-23T08:21:22.289Z,100021.00
2023-11-23T08:21:33.850Z,100021.00
2023-11-23T08:21:47.597Z,100021.00
2023-11-23T08:21:56.219Z,100021.00
2023-11-23T08:22:07.503Z,100025.00
2023-11-23T08:22:19.067Z,100021.00
2023-11-23T08:22:30.335Z,100023.00
2023-11-23T08:22:41.891Z,100021.00
2023-11-23T08:22:53.194Z,100021.00
2023-11-23T08:23:04.730Z,100015.00
2023-11-23T08:23:15.989Z,100017.00
2023-11-23T08:23:27.585Z,100019.00
2023-11-23T08:23:38.891Z,100019.00
2023-11-23T08:23:50.423Z,100023.00
2023-11-23T08:24:01.770Z,100033.00
2023-11-23T08:24:13.319Z,100019.00
2023-11-23T08:24:24.659Z,100013.00
2023-11-23T08:24:36.210Z,100009.00
2023-11-23T08:24:47.469Z,100011.00
2023-11-23T08:24:59.055Z,100005.00
2023-11-23T08:25:10.339Z,100011.00
2023-11-23T08:25:21.847Z,100013.00
2023-11-23T08:25:33.127Z,100013.00
2023-11-23T08:25:44.669Z,100011.00
2023-11-23T08:25:55.935Z,100013.00
2023-11-23T08:26:07.508Z,100015.00
2023-11-23T08:26:18.817Z,100015.00
2023-11-23T08:26:30.445Z,100015.00
2023-11-23T08:26:41.719Z,100011.00
2023-11-23T08:26:53.273Z,100011.00
2023-11-23T08:27:04.575Z,100009.00
2023-11-23T08:27:16.172Z,100015.00
2023-11-23T08:27:27.456Z,100011.00
2023-11-23T08:27:39.527Z,100003.00
2023-11-23T08:27:51.157Z,100009.00
2023-11-23T08:28:02.459Z,100005.00
2023-11-23T08:28:13.978Z,100007.00
2023-11-23T08:28:25.248Z,100011.00
2023-11-23T08:28:36.779Z,100011.00
2023-11-23T08:28:48.091Z,100007.00
2023-11-23T08:28:59.644Z,100005.00
2023-11-23T08:29:10.924Z,100007.00
2023-11-23T08:29:22.453Z,100011.00
2023-11-23T08:29:33.747Z,100011.00
2023-11-23T08:29:45.273Z,100011.00
2023-11-23T08:29:56.658Z,100011.00
2023-11-23T08:30:08.203Z,100013.00
2023-11-23T08:30:19.482Z,100013.00
2023-11-23T08:30:31.069Z,100015.00
2023-11-23T08:30:42.435Z,100017.00
2023-11-23T08:30:54.268Z,100019.00
2023-11-23T08:31:05.595Z,100019.00
2023-11-23T08:31:17.220Z,100017.00
2023-11-23T08:31:28.572Z,100015.00
2023-11-23T08:31:40.107Z,100015.00
2023-11-23T08:31:51.409Z,100015.00
2023-11-23T08:32:02.946Z,100015.00
2023-11-23T08:32:14.333Z,100015.00
2023-11-23T08:32:25.883Z,100015.00
2023-11-23T08:32:37.131Z,100011.00
2023-11-23T08:32:48.687Z,100007.00
2023-11-23T08:33:00.068Z,100009.00
2023-11-23T08:33:11.666Z,100013.00
2023-11-23T08:33:22.980Z,100013.00
2023-11-23T08:33:34.556Z,100013.00
2023-11-23T08:33:45.945Z,100015.00
2023-11-23T08:33:57.536Z,100013.00
2023-11-23T08:34:08.888Z,100011.00
2023-11-23T08:34:20.541Z,100009.00
2023-11-23T08:34:31.783Z,100007.00
2023-11-23T08:34:44.860Z,100009.00
2023-11-23T08:34:54.319Z,100011.00
2023-11-23T08:35:05.848Z,100011.00
2023-11-23T08:35:17.125Z,100017.00
2023-11-23T08:35:28.663Z,100021.00
2023-11-23T08:35:39.953Z,100015.00
2023-11-23T08:35:51.527Z,100013.00
2023-11-23T08:36:02.813Z,100013.00
2023-11-23T08:36:14.418Z,100013.00
2023-11-23T08:36:25.851Z,100011.00
2023-11-23T08:36:37.494Z,100011.00
2023-11-23T08:36:48.764Z,100013.00
2023-11-23T08:37:00.293Z,100015.00
2023-11-23T08:37:11.578Z,100017.00
2023-11-23T08:37:23.124Z,100019.00
2023-11-23T08:37:34.412Z,100019.00
2023-11-23T08:37:45.921Z,100017.00
2023-11-23T08:37:57.206Z,100017.00
2023-11-23T08:38:08.757Z,100021.00
2023-11-23T08:38:20.035Z,100021.00
2023-11-23T08:38:31.543Z,100017.00
2023-11-23T08:38:42.826Z,100019.00
2023-11-23T08:38:54.433Z,100009.00
2023-11-23T08:39:05.700Z,100009.00
2023-11-23T08:39:17.310Z,100011.00
2023-11-23T08:39:28.637Z,100015.00
2023-11-23T08:39:40.160Z,100009.00
2023-11-23T08:39:51.429Z,100009.00
2023-11-23T08:40:02.959Z,100019.00
2023-11-23T08:40:14.268Z,100017.00
2023-11-23T08:40:25.820Z,100015.00
2023-11-23T08:40:37.104Z,100017.00
2023-11-23T08:40:48.621Z,100017.00
2023-11-23T08:40:59.891Z,100015.00
2023-11-23T08:41:11.423Z,100013.00
2023-11-23T08:41:22.673Z,100007.00
2023-11-23T08:41:34.227Z,100017.00
2023-11-23T08:41:45.540Z,100015.00
2023-11-23T08:41:57.328Z,100021.00
2023-11-23T08:42:08.604Z,100021.00
2023-11-23T08:42:20.233Z,100021.00
2023-11-23T08:42:31.576Z,100021.00
2023-11-23T08:42:43.183Z,100015.00
2023-11-23T08:42:54.525Z,100015.00
2023-11-23T08:43:06.182Z,100017.00
2023-11-23T08:43:17.411Z,100021.00
2023-11-23T08:43:28.956Z,100019.00
2023-11-23T08:43:40.278Z,100021.00
2023-11-23T08:43:51.765Z,100015.00
2023-11-23T08:44:03.036Z,100013.00
2023-11-23T08:44:14.620Z,100011.00
2023-11-23T08:44:25.882Z,100009.00
2023-11-23T08:44:37.446Z,100009.00
2023-11-23T08:44:48.703Z,100009.00
2023-11-23T08:45:00.427Z,100009.00
2023-11-23T08:45:11.861Z,100005.00
2023-11-23T08:45:23.480Z,100009.00
2023-11-23T08:45:34.999Z,100011.00
2023-11-23T08:45:46.679Z,100011.00
2023-11-23T08:45:57.988Z,100013.00
2023-11-23T08:46:09.537Z,100019.00
2023-11-23T08:46:20.894Z,100011.00
2023-11-23T08:46:32.501Z,99996.00
2023-11-23T08:46:43.788Z,99994.00
2023-11-23T08:46:55.399Z,100002.00
2023-11-23T08:47:06.730Z,100007.00
2023-11-23T08:47:18.312Z,100007.00
2023-11-23T08:47:29.849Z,100005.00
2023-11-23T08:47:41.436Z,100002.00
2023-11-23T08:47:52.785Z,100002.00
2023-11-23T08:48:04.469Z,100002.00
2023-11-23T08:48:15.837Z,100000.00
2023-11-23T08:48:27.534Z,100003.00
2023-11-23T08:48:38.866Z,100003.00
2023-11-23T08:48:50.543Z,100007.00
2023-11-23T08:49:01.835Z,100009.00
2023-11-23T08:49:13.344Z,100003.00
2023-11-23T08:49:24.589Z,99998.00
2023-11-23T08:49:36.263Z,100000.00
2023-11-23T08:49:47.547Z,100003.00
2023-11-23T08:49:59.084Z,100003.00
2023-11-23T08:50:10.353Z,100005.00
2023-11-23T08:50:21.863Z,100003.00
2023-11-23T08:50:33.132Z,100003.00
2023-11-23T08:50:44.674Z,100005.00
2023-11-23T08:50:55.949Z,100003.00
2023-11-23T08:51:07.540Z,100005.00
2023-11-23T08:51:18.948Z,100005.00
2023-11-23T08:51:30.466Z,100003.00
2023-11-23T08:51:41.773Z,100003.00
2023-11-23T08:51:53.307Z,100005.00
2023-11-23T08:52:04.615Z,100005.00
2023-11-23T08:52:16.149Z,100005.00
2023-11-23T08:52:27.464Z,100003.00
2023-11-23T08:52:39.084Z,100002.00
2023-11-23T08:52:50.439Z,100000.00
2023-11-23T08:53:01.922Z,100002.00
2023-11-23T08:53:13.201Z,100003.00
2023-11-23T08:53:24.734Z,100003.00
2023-11-23T08:53:35.997Z,100002.00
2023-11-23T08:53:47.611Z,99998.00
2023-11-23T08:53:58.974Z,100005.00
2023-11-23T08:54:10.529Z,100007.00
2023-11-23T08:54:21.834Z,100005.00
2023-11-23T08:54:33.398Z,100007.00
2023-11-23T08:54:44.668Z,100011.00
2023-11-23T08:54:56.175Z,100013.00
2023-11-23T08:55:07.447Z,100011.00
2023-11-23T08:55:18.982Z,100013.00
2023-11-23T08:55:30.243Z,100011.00
2023-11-23T08:55:41.779Z,100009.00
2023-11-23T08:55:53.078Z,99998.00
2023-11-23T08:56:04.590Z,100005.00
2023-11-23T08:56:17.307Z,100007.00
2023-11-23T08:56:26.595Z,100007.00
2023-11-23T08:56:38.135Z,100007.00
2023-11-23T08:56:49.432Z,100007.00
2023-11-23T08:57:00.995Z,100007.00
2023-11-23T08:57:12.273Z,100005.00
2023-11-23T08:57:23.787Z,100011.00
2023-11-23T08:57:35.107Z,100007.00
2023-11-23T08:57:46.606Z,100009.00
2023-11-23T08:57:57.897Z,100009.00
2023-11-23T08:58:09.413Z,100005.00
2023-11-23T08:58:20.678Z,100007.00
2023-11-23T08:58:32.215Z,100007.00
2023-11-23T08:58:43.634Z,100011.00
2023-11-23T08:58:55.167Z,100013.00
2023-11-23T08:59:06.448Z,100013.00
2023-11-23T08:59:17.998Z,100009.00
2023-11-23T08:59:29.255Z,100011.00
2023-11-23T08:59:40.812Z,100011.00
2023-11-23T08:59:52.114Z,100011.00
2023-11-23T09:00:03.741Z,100009.00
2023-11-23T09:00:15.087Z,100009.00
2023-11-23T09:00:26.638Z,100015.00
2023-11-23T09:00:38.061Z,100007.00
2023-11-23T09:00:49.641Z,100009.00
2023-11-23T09:01:00.894Z,100009.00
2023-11-23T09:01:12.476Z,100005.00
2023-11-23T09:01:23.826Z,100003.00
2023-11-23T09:01:35.490Z,100003.00
2023-11-23T09:01:50.869Z,100005.00
2023-11-23T09:02:02.428Z,100000.00
2023-11-23T09:02:17.427Z,100002.00
2023-11-23T09:02:22.736Z,100003.00
2023-11-23T09:02:34.091Z,100000.00
2023-11-23T09:02:45.706Z,100003.00
2023-11-23T09:02:57.230Z,100002.00
2023-11-23T09:03:08.930Z,100005.00
2023-11-23T09:03:20.304Z,100007.00
2023-11-23T09:03:32.014Z,100009.00
2023-11-23T09:03:43.506Z,100002.00
2023-11-23T09:03:55.216Z,100000.00
2023-11-23T09:04:06.722Z,100000.00
2023-11-23T09:04:18.473Z,100003.00
2023-11-23T09:04:36.547Z,100002.00
2023-11-23T09:04:45.158Z,99998.00
2023-11-23T09:04:53.013Z,99996.00
2023-11-23T09:05:04.483Z,99996.00
2023-11-23T09:05:16.236Z,99990.00
2023-11-23T09:05:27.712Z,99998.00
2023-11-23T09:05:39.409Z,99996.00
2023-11-23T09:05:50.871Z,100003.00
2023-11-23T09:06:02.468Z,99998.00
2023-11-23T09:06:13.941Z,99994.00
2023-11-23T09:06:25.718Z,99992.00
2023-11-23T09:06:37.025Z,99994.00
2023-11-23T09:06:48.590Z,99994.00
2023-11-23T09:06:59.871Z,99992.00
2023-11-23T09:07:11.440Z,99992.00
2023-11-23T09:07:22.785Z,99990.00
2023-11-23T09:07:34.378Z,99990.00
2023-11-23T09:07:45.636Z,99992.00
2023-11-23T09:07:57.191Z,99992.00
2023-11-23T09:08:08.465Z,99992.00
2023-11-23T09:08:20.071Z,99990.00
2023-11-23T09:08:31.307Z,99992.00
2023-11-23T09:08:42.869Z,99994.00
2023-11-23T09:08:54.213Z,99992.00
2023-11-23T09:09:05.776Z,99990.00
2023-11-23T09:09:17.898Z,99990.00
2023-11-23T09:09:27.771Z,99992.00
2023-11-23T09:09:40.062Z,99990.00
2023-11-23T09:09:51.593Z,99986.00
2023-11-23T09:10:02.895Z,99986.00
2023-11-23T09:10:14.402Z,99986.00
2023-11-23T09:10:25.669Z,99990.00
2023-11-23T09:10:37.209Z,99994.00
2023-11-23T09:10:48.487Z,99994.00
2023-11-23T09:11:00.090Z,99990.00
2023-11-23T09:11:11.353Z,99992.00
2023-11-23T09:11:22.937Z,99990.00
2023-11-23T09:11:34.249Z,99990.00
2023-11-23T09:11:45.780Z,99990.00
2023-11-23T09:11:57.095Z,99990.00
2023-11-23T09:12:08.876Z,99988.00
2023-11-23T09:12:20.383Z,99986.00
2023-11-23T09:12:32.104Z,99984.00
2023-11-23T09:12:43.397Z,99988.00
2023-11-23T09:12:54.958Z,99990.00
2023-11-23T09:13:06.306Z,99988.00
2023-11-23T09:13:17.879Z,99990.00
2023-11-23T09:13:29.184Z,99988.00
2023-11-23T09:13:40.764Z,99990.00
2023-11-23T09:13:52.033Z,99990.00
2023-11-23T09:14:03.583Z,99990.00
2023-11-23T09:14:14.861Z,99996.00
2023-11-23T09:14:26.392Z,99996.00
2023-11-23T09:14:46.783Z,99994.00
2023-11-23T09:14:50.271Z,99994.00
2023-11-23T09:15:02.127Z,99994.00
2023-11-23T09:15:13.454Z,99994.00
2023-11-23T09:15:25.051Z,99990.00
2023-11-23T09:15:36.440Z,99998.00
2023-11-23T09:15:48.009Z,99998.00
2023-11-23T09:15:59.378Z,99996.00
2023-11-23T09:16:10.938Z,100003.00
2023-11-23T09:16:22.228Z,100000.00
2023-11-23T09:16:33.784Z,99988.00
2023-11-23T09:16:45.060Z,99990.00
2023-11-23T09:16:56.618Z,100000.00
2023-11-23T09:17:07.900Z,99998.00
2023-11-23T09:17:19.453Z,99996.00
2023-11-23T09:17:30.878Z,99994.00
2023-11-23T09:17:42.452Z,99996.00
2023-11-23T09:17:53.807Z,99996.00
2023-11-23T09:18:05.528Z,99992.00
2023-11-23T09:18:17.059Z,99994.00
2023-11-23T09:18:28.738Z,99994.00
2023-11-23T09:18:40.174Z,99994.00
2023-11-23T09:18:51.826Z,99994.00
2023-11-23T09:19:03.228Z,99994.00
2023-11-23T09:19:14.821Z,99996.00
2023-11-23T09:19:26.123Z,99992.00
2023-11-23T09:19:37.709Z,99978.00
2023-11-23T09:19:48.987Z,99982.00
2023-11-23T09:20:00.522Z,99992.00
2023-11-23T09:20:11.810Z,99992.00
2023-11-23T09:20:23.378Z,99992.00
2023-11-23T09:20:34.652Z,99990.00
2023-11-23T09:20:46.306Z,99988.00
2023-11-23T09:20:59.280Z,99988.00
2023-11-23T09:21:08.043Z,99986.00
2023-11-23T09:21:19.496Z,99992.00
2023-11-23T09:21:31.058Z,99992.00
2023-11-23T09:21:42.437Z,99994.00
2023-11-23T09:21:53.983Z,99992.00
2023-11-23T09:22:05.242Z,99990.00
2023-11-23T09:22:16.834Z,99996.00
2023-11-23T09:22:28.139Z,99992.00
2023-11-23T09:22:39.697Z,99986.00
2023-11-23T09:22:50.974Z,99988.00
2023-11-23T09:23:03.038Z,99988.00
2023-11-23T09:23:15.291Z,99986.00
2023-11-23T09:23:26.857Z,99988.00
2023-11-23T09:23:38.154Z,99986.00
2023-11-23T09:23:49.691Z,99988.00
2023-11-23T09:24:00.988Z,99990.00
2023-11-23T09:24:12.590Z,99982.00
2023-11-23T09:24:23.887Z,99982.00
2023-11-23T09:24:35.464Z,99980.00
2023-11-23T09:24:46.761Z,99980.00
2023-11-23T09:24:58.298Z,99976.00
2023-11-23T09:25:09.565Z,99978.00
2023-11-23T09:25:21.100Z,99982.00
2023-11-23T09:25:32.401Z,99982.00
2023-11-23T09:25:43.967Z,99982.00
2023-11-23T09:25:55.250Z,99980.00
2023-11-23T09:26:06.822Z,99976.00
2023-11-23T09:26:18.101Z,99974.00
2023-11-23T09:26:29.644Z,99974.00
2023-11-23T09:26:40.922Z,99974.00
2023-11-23T09:26:52.555Z,99976.00
2023-11-23T09:27:03.978Z,99976.00
2023-11-23T09:27:15.588Z,99978.00
2023-11-23T09:27:27.530Z,99980.00
2023-11-23T09:27:38.945Z,99974.00
2023-11-23T09:27:50.592Z,99974.00
2023-11-23T09:28:01.861Z,99976.00
2023-11-23T09:28:13.428Z,99974.00
2023-11-23T09:28:24.760Z,99976.00
2023-11-23T09:28:36.267Z,99978.00
2023-11-23T09:28:47.585Z,99972.00
2023-11-23T09:28:59.077Z,99974.00
2023-11-23T09:29:10.337Z,99974.00
2023-11-23T09:29:21.888Z,99972.00
2023-11-23T09:29:33.163Z,99972.00
2023-11-23T09:29:44.671Z,99974.00
2023-11-23T09:29:55.968Z,99978.00
2023-11-23T09:30:07.619Z,99976.00
2023-11-23T09:30:19.164Z,99974.00
2023-11-23T09:30:30.757Z,99972.00
2023-11-23T09:30:42.018Z,99970.00
2023-11-23T09:30:53.534Z,99972.00
2023-11-23T09:31:04.824Z,99976.00
2023-11-23T09:31:16.406Z,99972.00
2023-11-23T09:31:27.770Z,99974.00
2023-11-23T09:31:39.259Z,99968.00
2023-11-23T09:31:50.616Z,99968.00
2023-11-23T09:32:02.165Z,99968.00
2023-11-23T09:32:13.425Z,99966.00
2023-11-23T09:32:25.027Z,99964.00
2023-11-23T09:32:36.326Z,99966.00
2023-11-23T09:32:47.948Z,99964.00
2023-11-23T09:32:59.273Z,99964.00
2023-11-23T09:33:11.425Z,99968.00
2023-11-23T09:33:24.470Z,99968.00
2023-11-23T09:33:34.591Z,99968.00
2023-11-23T09:33:46.285Z,99966.00
2023-11-23T09:33:57.618Z,99964.00
2023-11-23T09:34:09.184Z,99961.00
2023-11-23T09:34:20.495Z,99961.00
2023-11-23T09:34:32.018Z,99963.00
2023-11-23T09:34:43.360Z,99963.00
2023-11-23T09:34:54.909Z,99964.00
2023-11-23T09:35:06.290Z,99964.00
2023-11-23T09:35:17.937Z,99964.00
2023-11-23T09:35:29.196Z,99964.00
2023-11-23T09:35:40.736Z,99964.00
2023-11-23T09:35:52.048Z,99964.00
2023-11-23T09:36:04.046Z,99959.00
2023-11-23T09:36:15.853Z,99957.00
2023-11-23T09:36:27.134Z,99959.00
2023-11-23T09:36:38.746Z,99964.00
2023-11-23T09:36:50.140Z,99961.00
2023-11-23T09:37:01.669Z,99963.00
2023-11-23T09:37:12.961Z,99961.00
2023-11-23T09:37:24.506Z,99955.00
2023-11-23T09:37:35.787Z,99955.00
2023-11-23T09:37:47.294Z,99955.00
2023-11-23T09:37:58.535Z,99955.00
2023-11-23T09:38:10.087Z,99959.00
2023-11-23T09:38:21.343Z,99959.00
2023-11-23T09:38:32.950Z,99955.00
2023-11-23T09:38:44.200Z,99961.00
2023-11-23T09:38:55.854Z,99955.00
2023-11-23T09:39:07.148Z,99966.00
2023-11-23T09:39:20.034Z,99964.00
2023-11-23T09:39:30.404Z,99964.00
2023-11-23T09:39:41.949Z,99953.00
2023-11-23T09:39:53.227Z,99951.00
2023-11-23T09:40:04.767Z,99951.00
2023-11-23T09:40:16.076Z,99953.00
2023-11-23T09:40:27.661Z,99955.00
2023-11-23T09:40:39.028Z,99955.00
2023-11-23T09:40:50.585Z,99955.00
2023-11-23T09:41:01.846Z,99953.00
2023-11-23T09:41:13.369Z,99955.00
2023-11-23T09:41:24.783Z,99949.00
2023-11-23T09:41:36.297Z,99949.00
2023-11-23T09:41:47.554Z,99953.00
2023-11-23T09:41:59.472Z,99951.00
2023-11-23T09:42:11.136Z,99953.00
2023-11-23T09:42:22.461Z,99955.00
2023-11-23T09:42:34.152Z,99951.00
2023-11-23T09:42:45.526Z,99939.00
2023-11-23T09:42:57.039Z,99943.00
2023-11-23T09:43:08.383Z,99945.00
2023-11-23T09:43:19.889Z,99947.00
2023-11-23T09:43:31.235Z,99949.00
2023-11-23T09:43:42.796Z,99949.00
2023-11-23T09:43:54.082Z,99953.00
2023-11-23T09:44:05.683Z,99953.00
2023-11-23T09:44:16.972Z,99949.00
2023-11-23T09:44:28.588Z,99949.00
2023-11-23T09:44:39.881Z,99951.00
2023-11-23T09:44:51.469Z,99949.00
2023-11-23T09:45:02.769Z,99945.00
2023-11-23T09:45:14.416Z,99943.00
2023-11-23T09:45:26.820Z,99943.00
2023-11-23T09:45:36.244Z,99949.00
2023-11-23T09:45:47.941Z,99947.00
2023-11-23T09:45:59.353Z,99947.00
2023-11-23T09:46:11.038Z,99949.00
2023-11-23T09:46:22.351Z,99949.00
2023-11-23T09:46:33.994Z,99947.00
2023-11-23T09:46:45.302Z,99949.00
2023-11-23T09:46:56.887Z,99947.00
2023-11-23T09:47:08.144Z,99949.00
2023-11-23T09:47:19.724Z,99951.00
2023-11-23T09:47:31.004Z,99949.00
2023-11-23T09:47:42.551Z,99943.00
2023-11-23T09:47:53.947Z,99943.00
2023-11-23T09:48:05.711Z,99951.00
2023-11-23T09:48:17.115Z,99941.00
2023-11-23T09:48:28.677Z,99943.00
2023-11-23T09:48:39.974Z,99939.00
2023-11-23T09:48:51.554Z,99933.00
2023-11-23T09:49:02.832Z,99937.00
2023-11-23T09:49:14.484Z,99945.00
2023-11-23T09:49:25.736Z,99945.00
2023-11-23T09:49:37.294Z,99945.00
2023-11-23T09:49:48.553Z,99943.00
2023-11-23T09:50:00.142Z,99939.00
2023-11-23T09:50:11.540Z,99937.00
2023-11-23T09:50:24.136Z,99935.00
2023-11-23T09:50:37.147Z,99933.00
2023-11-23T09:50:45.253Z,99935.00
2023-11-23T09:50:56.589Z,99933.00
2023-11-23T09:51:08.259Z,99933.00
2023-11-23T09:51:19.591Z,99933.00
2023-11-23T09:51:31.132Z,99931.00
2023-11-23T09:51:42.389Z,99929.00
2023-11-23T09:51:53.909Z,99935.00
2023-11-23T09:52:05.206Z,99933.00
2023-11-23T09:52:16.710Z,99933.00
2023-11-23T09:52:27.985Z,99937.00
2023-11-23T09:52:39.572Z,99933.00
2023-11-23T09:52:50.841Z,99929.00
2023-11-23T09:53:02.397Z,99933.00
2023-11-23T09:53:13.665Z,99935.00
2023-11-23T09:53:25.251Z,99933.00
2023-11-23T09:53:36.532Z,99929.00
2023-11-23T09:53:48.088Z,99929.00
2023-11-23T09:53:59.379Z,99929.00
2023-11-23T09:54:10.932Z,99933.00
2023-11-23T09:54:22.235Z,99933.00
2023-11-23T09:54:33.892Z,99929.00
2023-11-23T09:54:45.358Z,99927.00
2023-11-23T09:54:56.921Z,99927.00
2023-11-23T09:55:08.212Z,99927.00
2023-11-23T09:55:19.751Z,99925.00
2023-11-23T09:55:31.103Z,99923.00
2023-11-23T09:55:42.653Z,99929.00
2023-11-23T09:55:54.022Z,99927.00
2023-11-23T09:56:05.588Z,99927.00
2023-11-23T09:56:16.877Z,99925.00
2023-11-23T09:56:28.433Z,99927.00
2023-11-23T09:56:39.728Z,99923.00
2023-11-23T09:56:51.250Z,99925.00
2023-11-23T09:57:02.926Z,99923.00
2023-11-23T09:57:14.647Z,99925.00
2023-11-23T09:57:25.934Z,99925.00
2023-11-23T09:57:37.589Z,99925.00
2023-11-23T09:57:48.851Z,99923.00
2023-11-23T09:58:00.426Z,99923.00
2023-11-23T09:58:11.672Z,99923.00
2023-11-23T09:58:23.215Z,99929.00
2023-11-23T09:58:34.499Z,99929.00
2023-11-23T09:58:46.045Z,99929.00
2023-11-23T09:58:57.319Z,99931.00
2023-11-23T09:59:08.947Z,99931.00
2023-11-23T09:59:20.267Z,99929.00
2023-11-23T09:59:31.789Z,99925.00